createdAt,value
2019-02-21T00:01:37.698Z,15.27
2019-02-21T00:04:11.076Z,15.37
2019-02-21T00:06:44.350Z,14.57
2019-02-21T00:09:17.656Z,15.60
2019-02-21T00:11:50.942Z,16.53
2019-02-21T00:14:24.235Z,17.20
2019-02-21T00:16:59.084Z,15.40
2019-02-21T00:19:32.376Z,15.93
2019-02-21T00:22:05.664Z,16.07
2019-02-21T00:24:40.117Z,15.87
2019-02-21T00:27:13.377Z,16.17
2019-02-21T00:29:46.673Z,16.47
2019-02-21T00:32:22.625Z,17.43
2019-02-21T00:34:55.930Z,16.10
2019-02-21T00:37:29.198Z,15.83
2019-02-21T00:40:02.496Z,14.27
2019-02-21T00:42:35.802Z,14.93
2019-02-21T00:45:09.170Z,15.83
2019-02-21T00:47:42.457Z,15.70
2019-02-21T00:50:15.762Z,16.63
2019-02-21T00:52:49.049Z,16.33
2019-02-21T00:55:22.358Z,17.07
2019-02-21T00:57:55.646Z,15.27
2019-02-21T01:00:29.016Z,16.03
2019-02-21T01:03:03.940Z,15.63
2019-02-21T01:05:37.231Z,14.93
2019-02-21T01:08:10.567Z,15.07
2019-02-21T01:10:43.870Z,15.80
2019-02-21T01:13:18.187Z,14.93
2019-02-21T01:15:51.488Z,15.23
2019-02-21T01:18:24.765Z,15.17
2019-02-21T01:20:59.810Z,15.10
2019-02-21T01:23:49.186Z,14.57
2019-02-21T01:26:22.496Z,14.07
2019-02-21T01:28:57.305Z,13.90
2019-02-21T01:31:32.115Z,15.73
2019-02-21T01:34:05.477Z,16.63
2019-02-21T01:36:41.588Z,15.87
2019-02-21T01:39:14.868Z,16.97
2019-02-21T01:41:48.144Z,16.53
2019-02-21T01:47:02.441Z,15.33
2019-02-21T01:49:37.097Z,14.73
2019-02-21T01:52:14.082Z,15.43
2019-02-21T01:54:48.540Z,14.80
2019-02-21T01:57:30.611Z,14.90
2019-02-21T02:00:05.734Z,14.23
2019-02-21T02:02:41.351Z,16.40
2019-02-21T02:05:14.618Z,14.67
2019-02-21T02:07:47.915Z,14.57
2019-02-21T02:10:21.188Z,14.57
2019-02-21T02:12:54.474Z,14.80
2019-02-21T02:15:29.310Z,15.97
2019-02-21T02:18:02.595Z,15.17
2019-02-21T02:20:35.893Z,14.33
2019-02-21T02:23:09.163Z,15.17
2019-02-21T02:25:42.453Z,14.53
2019-02-21T02:28:15.724Z,14.17
2019-02-21T02:30:48.850Z,14.27
2019-02-21T02:33:22.130Z,13.93
2019-02-21T02:35:55.419Z,14.60
2019-02-21T02:38:28.700Z,14.23
2019-02-21T02:41:02.002Z,13.87
2019-02-21T02:43:35.280Z,14.00
2019-02-21T02:46:08.574Z,13.70
2019-02-21T02:48:41.859Z,13.13
2019-02-21T02:51:15.176Z,13.20
2019-02-21T02:53:48.486Z,13.67
2019-02-21T02:56:21.794Z,14.80
2019-02-21T02:58:55.081Z,14.07
2019-02-21T03:01:34.720Z,15.20
2019-02-21T03:04:03.483Z,15.00
2019-02-21T03:06:36.787Z,13.93
2019-02-21T03:09:11.398Z,14.83
2019-02-21T03:11:44.690Z,14.10
2019-02-21T03:14:18.034Z,13.60
2019-02-21T03:16:51.319Z,14.53
2019-02-21T03:19:24.601Z,13.33
2019-02-21T03:21:57.893Z,13.83
2019-02-21T03:24:31.169Z,13.50
2019-02-21T03:27:04.473Z,14.00
2019-02-21T03:29:39.289Z,12.93
2019-02-21T03:32:13.151Z,14.07
2019-02-21T03:34:46.451Z,13.63
2019-02-21T03:37:19.753Z,13.83
2019-02-21T03:39:53.019Z,13.43
2019-02-21T03:42:26.313Z,13.23
2019-02-21T03:45:00.365Z,12.57
2019-02-21T03:47:33.639Z,13.27
2019-02-21T03:50:09.424Z,13.43
2019-02-21T03:52:42.713Z,13.30
2019-02-21T03:55:16.654Z,12.83
2019-02-21T03:57:50.045Z,12.97
2019-02-21T04:00:23.882Z,12.77
2019-02-21T04:02:57.257Z,13.77
2019-02-21T04:05:30.554Z,14.00
2019-02-21T04:08:03.917Z,15.40
2019-02-21T04:10:38.557Z,14.67
2019-02-21T04:13:14.925Z,13.83
2019-02-21T04:15:46.866Z,14.10
2019-02-21T04:18:20.713Z,12.90
2019-02-21T04:20:55.032Z,12.00
2019-02-21T04:23:28.339Z,13.23
2019-02-21T04:26:01.630Z,12.53
2019-02-21T04:28:34.940Z,12.03
2019-02-21T04:31:08.232Z,13.23
2019-02-21T04:33:41.549Z,12.83
2019-02-21T04:36:14.811Z,13.43
2019-02-21T04:38:49.775Z,13.60
2019-02-21T04:41:23.060Z,13.67
2019-02-21T04:43:56.824Z,14.07
2019-02-21T04:46:30.108Z,13.73
2019-02-21T04:49:03.466Z,14.33
2019-02-21T04:51:36.767Z,13.03
2019-02-21T04:54:10.074Z,13.57
2019-02-21T04:56:43.362Z,14.03
2019-02-21T04:59:16.662Z,13.67
2019-02-21T05:01:49.938Z,13.97
2019-02-21T05:04:23.242Z,16.40
2019-02-21T05:06:56.511Z,16.17
2019-02-21T05:09:29.805Z,17.17
2019-02-21T05:12:03.096Z,18.90
2019-02-21T05:14:37.918Z,20.13
2019-02-21T05:17:11.204Z,20.13
2019-02-21T05:19:44.497Z,22.93
2019-02-21T05:22:17.785Z,21.97
2019-02-21T05:24:51.078Z,22.60
2019-02-21T05:27:25.988Z,25.43
2019-02-21T05:29:59.295Z,23.10
2019-02-21T05:32:41.079Z,23.23
2019-02-21T05:35:19.121Z,19.07
2019-02-21T05:38:10.699Z,19.23
2019-02-21T05:40:57.604Z,20.10
2019-02-21T05:43:37.166Z,19.23
2019-02-21T05:46:20.896Z,18.43
2019-02-21T05:49:07.589Z,21.20
2019-02-21T05:51:45.232Z,24.27
2019-02-21T05:54:26.321Z,23.80
2019-02-21T05:57:03.845Z,18.97
2019-02-21T05:59:54.911Z,18.33
2019-02-21T06:02:32.657Z,20.63
2019-02-21T06:05:13.314Z,21.10
2019-02-21T06:08:04.647Z,18.70
2019-02-21T06:10:39.594Z,18.30
2019-02-21T06:13:20.321Z,18.87
2019-02-21T06:16:11.437Z,18.70
2019-02-21T06:18:58.522Z,19.10
2019-02-21T06:21:33.476Z,20.23
2019-02-21T06:24:08.433Z,20.43
2019-02-21T06:26:43.348Z,20.17
2019-02-21T06:29:18.280Z,18.33
2019-02-21T06:31:52.087Z,20.40
2019-02-21T06:34:25.358Z,19.77
2019-02-21T06:37:00.327Z,20.00
2019-02-21T06:39:33.596Z,18.47
2019-02-21T06:42:06.888Z,19.30
2019-02-21T06:44:40.213Z,18.80
2019-02-21T06:47:13.483Z,18.97
2019-02-21T06:49:46.798Z,17.63
2019-02-21T06:52:20.087Z,19.63
2019-02-21T06:54:53.399Z,17.17
2019-02-21T06:57:26.678Z,17.33
2019-02-21T07:00:00.797Z,18.33
2019-02-21T07:02:34.137Z,18.50
2019-02-21T07:05:07.494Z,18.20
2019-02-21T07:07:40.861Z,17.33
2019-02-21T07:10:14.244Z,18.47
2019-02-21T07:12:47.495Z,18.10
2019-02-21T07:15:20.790Z,15.93
2019-02-21T07:17:54.090Z,17.47
2019-02-21T07:20:27.392Z,16.53
2019-02-21T07:23:02.309Z,17.50
2019-02-21T07:25:37.258Z,17.03
2019-02-21T07:28:12.482Z,17.23
2019-02-21T07:30:45.855Z,17.30
2019-02-21T07:33:27.823Z,18.57
2019-02-21T07:35:54.159Z,18.30
2019-02-21T07:38:27.460Z,17.73
2019-02-21T07:41:00.922Z,18.27
2019-02-21T07:43:34.311Z,17.60
2019-02-21T07:46:07.631Z,17.17
2019-02-21T07:48:40.965Z,17.23
2019-02-21T07:51:14.280Z,17.97
2019-02-21T07:53:47.553Z,18.27
2019-02-21T07:56:20.959Z,18.17
2019-02-21T07:58:54.225Z,18.93
2019-02-21T08:01:27.525Z,19.27
2019-02-21T08:04:00.810Z,18.80
2019-02-21T08:06:34.133Z,23.07
2019-02-21T08:09:08.975Z,22.03
2019-02-21T08:11:42.289Z,19.30
2019-02-21T08:14:16.278Z,19.10
2019-02-21T08:16:49.646Z,22.20
2019-02-21T08:19:22.929Z,22.10
2019-02-21T08:21:56.730Z,19.17
2019-02-21T08:24:30.026Z,19.77
2019-02-21T08:27:03.328Z,18.93
2019-02-21T08:29:36.593Z,19.60
2019-02-21T08:32:11.365Z,20.13
2019-02-21T08:34:48.255Z,20.60
2019-02-21T08:37:21.630Z,23.30
2019-02-21T08:39:54.907Z,23.63
2019-02-21T08:42:28.199Z,22.83
2019-02-21T08:45:01.513Z,22.37
2019-02-21T08:47:34.805Z,21.33
2019-02-21T08:50:08.113Z,22.50
2019-02-21T08:52:41.424Z,22.97
2019-02-21T08:55:14.807Z,24.17
2019-02-21T08:57:48.104Z,23.00
2019-02-21T09:00:21.384Z,24.43
2019-02-21T09:02:56.284Z,22.10
2019-02-21T09:05:29.553Z,21.77
2019-02-21T09:08:04.443Z,22.83
2019-02-21T09:10:37.722Z,22.10
2019-02-21T09:13:11.054Z,22.87
2019-02-21T09:15:46.423Z,22.50
2019-02-21T09:18:19.432Z,21.40
2019-02-21T09:20:52.723Z,23.83
2019-02-21T09:23:26.026Z,21.90
2019-02-21T09:25:59.331Z,22.03
2019-02-21T09:28:32.631Z,22.67
2019-02-21T09:31:05.898Z,22.67
2019-02-21T09:33:39.199Z,22.13
2019-02-21T09:36:12.556Z,24.30
2019-02-21T09:38:45.854Z,21.50
2019-02-21T09:41:19.158Z,22.60
2019-02-21T09:43:52.477Z,29.37
2019-02-21T09:46:25.766Z,24.13
2019-02-21T09:48:59.129Z,21.23
2019-02-21T09:51:36.529Z,23.17
2019-02-21T09:54:09.078Z,23.80
2019-02-21T09:56:52.298Z,22.80
2019-02-21T09:59:17.420Z,22.30
2019-02-21T10:01:50.691Z,25.17
2019-02-21T10:04:31.926Z,25.87
2019-02-21T10:06:59.026Z,21.83
2019-02-21T10:09:32.359Z,22.00
2019-02-21T10:12:05.721Z,23.93
2019-02-21T10:14:39.030Z,22.47
2019-02-21T10:17:12.319Z,22.63
2019-02-21T10:19:45.632Z,23.93
2019-02-21T10:22:18.946Z,23.00
2019-02-21T10:24:52.288Z,24.90
2019-02-21T10:27:25.653Z,24.07
2019-02-21T10:29:58.932Z,23.70
2019-02-21T10:32:32.238Z,24.17
2019-02-21T10:35:06.586Z,23.90
2019-02-21T10:37:39.858Z,25.30
2019-02-21T10:40:15.038Z,23.70
2019-02-21T10:42:48.597Z,23.53
2019-02-21T10:45:22.818Z,23.70
2019-02-21T10:47:56.108Z,23.23
2019-02-21T10:50:29.395Z,23.57
2019-02-21T10:53:02.708Z,22.67
2019-02-21T10:55:35.954Z,22.57
2019-02-21T10:58:09.251Z,22.60
2019-02-21T11:00:42.668Z,21.70
2019-02-21T11:03:15.980Z,21.90
2019-02-21T11:05:49.271Z,22.47
2019-02-21T11:08:22.560Z,23.53
2019-02-21T11:10:55.833Z,22.90
2019-02-21T11:13:29.137Z,23.57
2019-02-21T11:16:02.408Z,23.70
2019-02-21T11:18:35.703Z,23.67
2019-02-21T11:21:08.998Z,23.37
2019-02-21T11:23:42.345Z,24.20
2019-02-21T11:26:15.634Z,24.17
2019-02-21T11:28:48.949Z,23.97
2019-02-21T11:31:22.225Z,23.67
2019-02-21T11:33:55.507Z,25.20
2019-02-21T11:36:28.782Z,24.97
2019-02-21T11:39:02.108Z,23.73
2019-02-21T11:41:35.389Z,23.50
2019-02-21T11:44:08.667Z,23.80
2019-02-21T11:46:41.939Z,24.20
2019-02-21T11:49:15.246Z,24.03
2019-02-21T11:51:48.525Z,23.23
2019-02-21T11:54:26.969Z,23.63
2019-02-21T11:56:56.853Z,23.33
2019-02-21T11:59:30.147Z,23.87
2019-02-21T12:02:03.445Z,22.60
2019-02-21T12:04:36.764Z,22.37
2019-02-21T12:07:10.042Z,23.20
2019-02-21T12:09:43.336Z,22.93
2019-02-21T12:12:16.673Z,23.50
2019-02-21T12:14:49.990Z,24.20
2019-02-21T12:17:23.274Z,23.43
2019-02-21T12:19:56.616Z,24.37
2019-02-21T12:22:29.899Z,23.83
2019-02-21T12:25:03.195Z,24.00
2019-02-21T12:27:36.468Z,23.50
2019-02-21T12:30:17.980Z,23.63
2019-02-21T12:32:51.256Z,23.70
2019-02-21T12:35:29.535Z,24.83
2019-02-21T12:37:59.637Z,24.17
2019-02-21T12:40:32.935Z,25.00
2019-02-21T12:43:06.219Z,25.80
2019-02-21T12:45:39.568Z,24.53
2019-02-21T12:48:12.853Z,25.63
2019-02-21T12:50:46.146Z,24.23
2019-02-21T12:53:19.435Z,23.47
2019-02-21T12:55:52.852Z,23.37
2019-02-21T12:58:26.133Z,24.20
2019-02-21T13:00:59.699Z,24.13
2019-02-21T13:03:32.982Z,23.80
2019-02-21T13:06:06.325Z,23.07
2019-02-21T13:08:39.743Z,23.97
2019-02-21T13:11:13.050Z,24.57
2019-02-21T13:13:46.331Z,24.30
2019-02-21T13:16:19.626Z,24.67
2019-02-21T13:18:53.324Z,25.07
2019-02-21T13:21:26.633Z,24.83
2019-02-21T13:23:59.953Z,24.27
2019-02-21T13:26:33.258Z,24.77
2019-02-21T13:29:06.549Z,24.87
2019-02-21T13:31:39.868Z,23.73
2019-02-21T13:34:13.159Z,22.90
2019-02-21T13:36:46.561Z,23.60
2019-02-21T13:39:20.039Z,24.07
2019-02-21T13:41:53.390Z,24.30
2019-02-21T13:44:26.693Z,24.13
2019-02-21T13:46:59.957Z,24.83
2019-02-21T13:49:34.799Z,23.50
2019-02-21T13:52:08.114Z,22.03
2019-02-21T13:54:41.411Z,21.30
2019-02-21T13:57:14.708Z,23.63
2019-02-21T13:59:48.003Z,21.93
2019-02-21T14:02:21.320Z,22.57
2019-02-21T14:04:54.649Z,22.70
2019-02-21T14:07:27.981Z,24.57
2019-02-21T14:10:01.289Z,24.03
2019-02-21T14:12:34.585Z,23.90
2019-02-21T14:15:11.345Z,25.60
2019-02-21T14:17:46.549Z,22.43
2019-02-21T14:20:19.671Z,22.50
2019-02-21T14:22:52.978Z,21.63
2019-02-21T14:25:28.446Z,22.03
2019-02-21T14:28:01.795Z,22.33
2019-02-21T14:30:35.194Z,23.37
2019-02-21T14:33:08.496Z,22.83
2019-02-21T14:35:41.882Z,22.07
2019-02-21T14:38:15.175Z,21.47
2019-02-21T14:40:48.485Z,22.37
2019-02-21T14:43:21.787Z,22.13
2019-02-21T14:45:55.101Z,21.83
2019-02-21T14:48:28.413Z,21.33
2019-02-21T14:51:01.715Z,22.03
2019-02-21T14:53:35.028Z,22.17
2019-02-21T14:56:08.682Z,21.40
2019-02-21T14:58:41.949Z,21.47
2019-02-21T15:01:15.273Z,21.07
2019-02-21T15:03:48.534Z,21.87
2019-02-21T15:06:26.972Z,21.67
2019-02-21T15:08:58.565Z,21.83
2019-02-21T15:11:31.892Z,23.07
2019-02-21T15:14:05.259Z,24.93
2019-02-21T15:16:38.553Z,21.80
2019-02-21T15:19:11.838Z,21.93
2019-02-21T15:21:45.161Z,22.23
2019-02-21T15:24:20.095Z,21.90
2019-02-21T15:26:53.450Z,21.83
2019-02-21T15:29:26.759Z,22.47
2019-02-21T15:32:10.268Z,22.57
2019-02-21T15:34:35.092Z,21.87
2019-02-21T15:37:08.389Z,21.73
2019-02-21T15:39:42.970Z,22.47
2019-02-21T15:42:16.399Z,21.63
2019-02-21T15:44:49.692Z,20.37
2019-02-21T15:47:25.684Z,21.53
2019-02-21T15:49:58.966Z,22.27
2019-02-21T15:52:32.279Z,23.37
2019-02-21T15:55:12.413Z,23.93
2019-02-21T15:57:44.036Z,24.00
2019-02-21T16:00:19.064Z,24.47
2019-02-21T16:02:52.455Z,25.67
2019-02-21T16:05:25.857Z,26.90
2019-02-21T16:07:59.156Z,27.17
2019-02-21T16:10:32.456Z,27.77
2019-02-21T16:13:05.947Z,29.53
2019-02-21T16:15:39.463Z,29.53
2019-02-21T16:18:14.021Z,34.90
2019-02-21T16:20:47.557Z,35.73
2019-02-21T16:23:20.851Z,30.20
2019-02-21T16:25:54.179Z,32.40
2019-02-21T16:28:27.479Z,32.10
2019-02-21T16:31:00.907Z,33.47
2019-02-21T16:33:34.335Z,32.90
2019-02-21T16:36:07.670Z,34.53
2019-02-21T16:38:40.985Z,33.83
2019-02-21T16:41:14.299Z,35.67
2019-02-21T16:43:47.644Z,36.67
2019-02-21T16:46:21.100Z,34.10
2019-02-21T16:48:54.415Z,32.87
2019-02-21T16:51:29.250Z,35.87
2019-02-21T16:54:02.567Z,34.00
2019-02-21T16:56:35.871Z,35.30
2019-02-21T16:59:09.212Z,31.80
2019-02-21T17:01:44.044Z,31.13
2019-02-21T17:04:17.357Z,31.70
2019-02-21T17:06:50.664Z,30.83
2019-02-21T17:09:23.979Z,30.87
2019-02-21T17:11:58.057Z,30.60
2019-02-21T17:14:31.353Z,31.10
2019-02-21T17:17:05.542Z,29.37
2019-02-21T17:19:38.961Z,31.03
2019-02-21T17:22:12.309Z,30.83
2019-02-21T17:24:45.646Z,28.93
2019-02-21T17:27:19.038Z,28.53
2019-02-21T17:29:52.367Z,28.27
2019-02-21T17:32:25.652Z,27.93
2019-02-21T17:34:58.975Z,27.53
2019-02-21T17:37:32.304Z,28.63
2019-02-21T17:40:08.714Z,28.97
2019-02-21T17:42:42.024Z,30.33
2019-02-21T17:45:17.025Z,30.07
2019-02-21T17:47:50.395Z,29.90
2019-02-21T17:50:23.711Z,32.93
2019-02-21T17:52:57.102Z,31.00
2019-02-21T17:55:30.474Z,30.83
2019-02-21T17:58:03.760Z,33.57
2019-02-21T18:00:38.764Z,31.70
2019-02-21T18:03:12.111Z,32.50
2019-02-21T18:05:45.449Z,33.47
2019-02-21T18:08:18.763Z,35.47
2019-02-21T18:10:52.100Z,33.87
2019-02-21T18:13:25.392Z,33.27
2019-02-21T18:15:58.682Z,31.03
2019-02-21T18:18:31.990Z,30.27
2019-02-21T18:21:05.300Z,32.00
2019-02-21T18:23:38.607Z,34.50
2019-02-21T18:26:16.348Z,35.03
2019-02-21T18:28:49.599Z,36.17
2019-02-21T18:31:24.541Z,34.83
2019-02-21T18:33:57.910Z,36.53
2019-02-21T18:36:31.175Z,33.70
2019-02-21T18:39:05.803Z,38.53
2019-02-21T18:41:39.669Z,36.27
2019-02-21T18:44:12.981Z,36.37
2019-02-21T18:46:46.287Z,34.90
2019-02-21T18:49:19.671Z,33.97
2019-02-21T18:51:52.977Z,36.17
2019-02-21T18:54:26.321Z,38.10
2019-02-21T18:56:59.624Z,36.47
2019-02-21T18:59:32.957Z,38.00
2019-02-21T19:02:06.329Z,36.90
2019-02-21T19:04:39.627Z,35.23
2019-02-21T19:07:12.943Z,34.27
2019-02-21T19:09:46.739Z,34.50
2019-02-21T19:12:20.153Z,34.83
2019-02-21T19:14:53.470Z,35.03
2019-02-21T19:17:26.841Z,34.57
2019-02-21T19:20:00.297Z,37.80
2019-02-21T19:22:33.536Z,46.87
2019-02-21T19:25:09.080Z,38.40
2019-02-21T19:27:42.466Z,35.03
2019-02-21T19:30:31.628Z,36.30
2019-02-21T19:33:05.025Z,40.47
2019-02-21T19:35:38.385Z,38.60
2019-02-21T19:38:11.681Z,39.10
2019-02-21T19:40:45.009Z,35.50
2019-02-21T19:43:18.371Z,35.33
2019-02-21T19:45:51.774Z,36.50
2019-02-21T19:48:25.110Z,35.37
2019-02-21T19:50:58.429Z,35.73
2019-02-21T19:53:31.714Z,39.60
2019-02-21T19:56:05.116Z,37.50
2019-02-21T19:58:38.395Z,36.50
2019-02-21T20:01:11.806Z,37.23
2019-02-21T20:03:45.085Z,37.47
2019-02-21T20:06:19.525Z,36.73
2019-02-21T20:08:52.787Z,38.07
2019-02-21T20:11:26.247Z,39.80
2019-02-21T20:13:59.635Z,36.83
2019-02-21T20:16:32.997Z,37.60
2019-02-21T20:19:06.312Z,36.77
2019-02-21T20:21:41.215Z,36.73
2019-02-21T20:24:14.589Z,37.73
2019-02-21T20:26:48.863Z,39.47
2019-02-21T20:29:22.237Z,40.93
2019-02-21T20:31:55.554Z,41.80
2019-02-21T20:34:28.867Z,44.60
2019-02-21T20:37:02.256Z,38.87
2019-02-21T20:39:37.058Z,38.40
2019-02-21T20:42:10.425Z,37.53
2019-02-21T20:44:43.719Z,39.60
2019-02-21T20:47:17.095Z,40.10
2019-02-21T20:49:50.476Z,38.03
2019-02-21T20:52:23.760Z,37.67
2019-02-21T20:54:57.161Z,38.70
2019-02-21T20:57:30.494Z,38.63
2019-02-21T21:00:05.510Z,35.40
2019-02-21T21:02:38.869Z,37.53
2019-02-21T21:05:12.187Z,36.43
2019-02-21T21:07:45.457Z,36.47
2019-02-21T21:10:19.054Z,37.47
2019-02-21T21:12:52.385Z,34.23
2019-02-21T21:15:25.760Z,36.13
2019-02-21T21:17:59.064Z,36.17
2019-02-21T21:20:34.409Z,35.47
2019-02-21T21:23:07.687Z,36.80
2019-02-21T21:25:40.991Z,35.60
2019-02-21T21:28:14.285Z,37.07
2019-02-21T21:30:47.683Z,35.50
2019-02-21T21:33:21.104Z,37.50
2019-02-21T21:35:54.428Z,36.03
2019-02-21T21:38:27.723Z,37.60
2019-02-21T21:41:01.103Z,36.53
2019-02-21T21:43:34.391Z,36.87
2019-02-21T21:46:07.712Z,36.67
2019-02-21T21:48:40.992Z,36.70
2019-02-21T21:51:14.300Z,36.93
2019-02-21T21:53:47.612Z,37.33
2019-02-21T21:56:21.711Z,36.43
2019-02-21T21:58:55.042Z,36.47
2019-02-21T22:01:28.357Z,35.33
2019-02-21T22:04:01.645Z,33.43
2019-02-21T22:06:34.945Z,31.50
2019-02-21T22:09:08.222Z,36.27
2019-02-21T22:11:41.615Z,33.17
2019-02-21T22:14:14.913Z,36.77
2019-02-21T22:16:48.265Z,36.67
2019-02-21T22:19:21.574Z,31.30
2019-02-21T22:21:54.869Z,35.50
2019-02-21T22:24:28.192Z,33.83
2019-02-21T22:27:01.622Z,35.17
2019-02-21T22:29:34.923Z,34.23
2019-02-21T22:32:08.215Z,34.23
2019-02-21T22:34:41.499Z,35.57
2019-02-21T22:37:14.814Z,31.00
2019-02-21T22:39:48.114Z,34.10
2019-02-21T22:42:21.393Z,33.63
2019-02-21T22:44:54.696Z,35.07
2019-02-21T22:47:27.970Z,33.57
2019-02-21T22:50:01.260Z,34.53
2019-02-21T22:52:34.551Z,35.30
2019-02-21T22:55:10.104Z,35.30
2019-02-21T22:57:43.643Z,35.10
2019-02-21T23:00:36.700Z,36.40
2019-02-21T23:03:11.443Z,36.07
2019-02-21T23:05:57.175Z,38.93
2019-02-21T23:08:42.739Z,36.90
2019-02-21T23:11:16.105Z,37.50
2019-02-21T23:13:49.784Z,36.23
2019-02-21T23:16:23.069Z,37.73
2019-02-21T23:18:56.370Z,37.30
2019-02-21T23:21:29.681Z,36.03
2019-02-21T23:24:03.060Z,36.00
2019-02-21T23:26:36.341Z,34.47
2019-02-21T23:29:09.689Z,35.37
2019-02-21T23:31:42.991Z,36.17
2019-02-21T23:34:17.968Z,36.87
2019-02-21T23:36:51.273Z,37.20
2019-02-21T23:39:24.539Z,35.47
2019-02-21T23:41:57.849Z,36.53
2019-02-21T23:44:31.118Z,35.17
2019-02-21T23:47:04.431Z,36.03
2019-02-21T23:49:37.736Z,35.30
2019-02-21T23:52:11.060Z,35.23
2019-02-21T23:54:44.331Z,32.53
2019-02-21T23:57:17.628Z,33.17
2019-02-21T23:59:50.906Z,32.30
